• Join FlightAware (Why Join?)
  • Login
  • US Flag 
02:34PM EDT


 

Airport Tracker/Info


-or-


 

Live Flight TrackerFlight Track Log ✈ UAL5848 ✈ 27-Aug-2013 ✈ KORD - KGRR

Flight Track Log - Related Links

Times and Time Zones

All times are in EDT time to prevent confusion due to time zone crossing. See the UAL5848 flight status page for this flight to view local times or setup timezone preferences in your user account.

Time Position Orientation Groundspeed Altitude Reporting Facility
EDT Latitude Longitude Course Direction KTS MPH feet Rate Location/Type
06:23PM 42.0167 -87.9500 66° East 199 229 2,200  Level Chicago TRACON
06:24PM 42.0667 -87.9167 26° Northeast 248 285 4,100 1,500 Climbing Chicago TRACON
06:25PM 42.1372 -87.8258 44° Northeast 268 308 5,900 1,440 Climbing Chicago Center
06:26PM 42.1130 -87.5001 59° Northeast  Level FlightAware Approximate
06:26PM 42.1933 -87.7481 46° Northeast 288 331 7,700  Level Chicago Center
06:27PM 42.1554 -87.4007 66° East  Level FlightAware Approximate
06:27PM 42.2089 -87.6347 79° East 305 351 9,700  Level Chicago Center
06:28PM 42.1903 -87.2959 66° East  Level FlightAware Approximate
06:28PM 42.2267 -87.4958 80° East 313 360 11,600  Level Chicago Center
06:29PM 42.2422 -87.3669 81° East 345 397 12,200 720 Climbing Chicago Center
06:30PM 42.2578 -87.2356 81° East 354 407 13,200 960 Climbing Chicago Center
06:31PM 42.2731 -87.1075 81° East 349 402 14,200 960 Climbing Chicago Center
06:32PM 42.2833 -86.9803 84° East 344 396 15,300 1,020 Climbing Chicago Center
06:33PM 42.2897 -86.8286 87° East 339 390 16,400 780 Climbing Chicago Center
06:35PM 42.2950 -86.6942 87° East 352 405 17,000 300 Climbing Chicago Center
06:36PM 42.2997 -86.5450 87° East 388 447 17,100  Climbing Chicago Center
06:37PM 42.3042 -86.3953 88° East 415 478 17,100 -540 Level Chicago Center
06:38PM 42.3400 -86.2453 72° East 428 493 16,100 -1,680 Descending Chicago Center
06:39PM 42.4353 -86.1181 45° Northeast 404 465 13,700 -2,160 Descending Chicago Center
06:40PM 42.5017 -86.0111 50° Northeast 377 434 11,700 -1,440 Descending Chicago Center
06:41PM 42.5592 -85.9061 53° Northeast 353 406 10,800 -1,020 Descending Chicago Center
06:42PM 42.6122 -85.8111 53° Northeast 325 374 9,700 -1,020 Descending Chicago Center
06:43PM 42.6622 -85.7236 52° Northeast 301 346 8,700 -1,380 Descending Chicago Center
06:44PM 42.7217 -85.6150 53° Northeast 300 345 6,900 -1,500 Descending Chicago Center
06:45PM 42.7706 -85.5278 53° Northeast 295 339 5,600 -1,020 Descending Chicago Center
06:46PM 42.8269 -85.4597 42° Northeast 289 333 4,800 -1,200 Descending Chicago Center
06:47PM 42.8361 -85.3569 83° East 279 321 3,200 -1,020 Descending Chicago Center
06:48PM 42.8889 -85.3233 25° Northeast 255 293 2,800 -420 Descending Chicago Center
06:49PM 42.8936 -85.3906 275° West 184 212 2,400 -480 Descending Chicago Center
06:50PM 42.8883 -85.4358 261° West 146 168 1,900 -600 Descending Chicago Center
06:51PM 42.8828 -85.4811 261° West 130 150 1,200 -480 Descending Chicago Center
06:52PM 42.8786 -85.5244 263° West 127 146 1,000 -240 Descending Chicago Center